sensor_id;sensor_type;location;lat;lon;timestamp;P1;durP1;ratioP1;P2;durP2;ratioP2
18612;SDS011;9436;52.152;21.032;2022-08-25T00:01:40;10.33;;;3.53;;
18612;SDS011;9436;52.152;21.032;2022-08-25T00:04:12;8.93;;;3.73;;
18612;SDS011;9436;52.152;21.032;2022-08-25T00:06:40;9.17;;;3.80;;
18612;SDS011;9436;52.152;21.032;2022-08-25T00:09:08;11.63;;;4.13;;
18612;SDS011;9436;52.152;21.032;2022-08-25T00:11:37;9.43;;;3.80;;
18612;SDS011;9436;52.152;21.032;2022-08-25T00:14:07;8.93;;;4.13;;
18612;SDS011;9436;52.152;21.032;2022-08-25T00:16:35;10.63;;;3.77;;
18612;SDS011;9436;52.152;21.032;2022-08-25T00:19:05;9.40;;;3.97;;
18612;SDS011;9436;52.152;21.032;2022-08-25T00:21:34;8.67;;;3.83;;
18612;SDS011;9436;52.152;21.032;2022-08-25T00:24:02;8.10;;;3.70;;
18612;SDS011;9436;52.152;21.032;2022-08-25T00:26:29;10.13;;;3.70;;
18612;SDS011;9436;52.152;21.032;2022-08-25T00:28:56;8.23;;;3.37;;
18612;SDS011;9436;52.152;21.032;2022-08-25T00:31:23;8.30;;;3.50;;
18612;SDS011;9436;52.152;21.032;2022-08-25T00:33:50;9.27;;;3.70;;
18612;SDS011;9436;52.152;21.032;2022-08-25T00:36:19;10.40;;;3.63;;
18612;SDS011;9436;52.152;21.032;2022-08-25T00:38:46;8.23;;;3.67;;
18612;SDS011;9436;52.152;21.032;2022-08-25T00:41:15;10.67;;;3.60;;
18612;SDS011;9436;52.152;21.032;2022-08-25T00:43:45;11.47;;;3.70;;
18612;SDS011;9436;52.152;21.032;2022-08-25T00:46:15;11.83;;;3.40;;
18612;SDS011;9436;52.152;21.032;2022-08-25T00:48:46;9.83;;;3.80;;
18612;SDS011;9436;52.152;21.032;2022-08-25T00:51:17;8.63;;;3.90;;
18612;SDS011;9436;52.152;21.032;2022-08-25T00:53:50;8.37;;;3.90;;
18612;SDS011;9436;52.152;21.032;2022-08-25T00:56:17;9.40;;;3.97;;
18612;SDS011;9436;52.152;21.032;2022-08-25T00:58:44;6.17;;;3.67;;
18612;SDS011;9436;52.152;21.032;2022-08-25T01:01:11;10.43;;;3.97;;
18612;SDS011;9436;52.152;21.032;2022-08-25T01:03:38;10.47;;;3.77;;
18612;SDS011;9436;52.152;21.032;2022-08-25T01:06:05;13.50;;;4.03;;
18612;SDS011;9436;52.152;21.032;2022-08-25T01:08:35;11.37;;;4.23;;
18612;SDS011;9436;52.152;21.032;2022-08-25T01:11:03;10.10;;;4.17;;
18612;SDS011;9436;52.152;21.032;2022-08-25T01:13:33;12.57;;;4.17;;
18612;SDS011;9436;52.152;21.032;2022-08-25T01:16:02;10.27;;;4.10;;
18612;SDS011;9436;52.152;21.032;2022-08-25T01:18:41;10.40;;;3.93;;
18612;SDS011;9436;52.152;21.032;2022-08-25T01:21:11;10.50;;;4.20;;
18612;SDS011;9436;52.152;21.032;2022-08-25T01:23:38;11.17;;;4.30;;
18612;SDS011;9436;52.152;21.032;2022-08-25T01:26:07;12.37;;;4.20;;
18612;SDS011;9436;52.152;21.032;2022-08-25T01:28:36;10.10;;;4.03;;
18612;SDS011;9436;52.152;21.032;2022-08-25T01:31:24;12.57;;;4.37;;
18612;SDS011;9436;52.152;21.032;2022-08-25T01:33:51;11.03;;;4.57;;
18612;SDS011;9436;52.152;21.032;2022-08-25T01:36:19;9.13;;;4.23;;
18612;SDS011;9436;52.152;21.032;2022-08-25T01:38:47;12.83;;;4.47;;
18612;SDS011;9436;52.152;21.032;2022-08-25T01:41:15;11.23;;;4.23;;
18612;SDS011;9436;52.152;21.032;2022-08-25T01:43:46;9.83;;;4.50;;
18612;SDS011;9436;52.152;21.032;2022-08-25T01:46:13;12.47;;;4.10;;
18612;SDS011;9436;52.152;21.032;2022-08-25T01:48:39;14.07;;;4.87;;
18612;SDS011;9436;52.152;21.032;2022-08-25T01:51:06;14.93;;;4.83;;
18612;SDS011;9436;52.152;21.032;2022-08-25T01:53:35;14.93;;;4.63;;
18612;SDS011;9436;52.152;21.032;2022-08-25T01:56:08;14.50;;;5.00;;
18612;SDS011;9436;52.152;21.032;2022-08-25T01:58:37;13.37;;;5.20;;
18612;SDS011;9436;52.152;21.032;2022-08-25T02:01:07;10.27;;;4.83;;
18612;SDS011;9436;52.152;21.032;2022-08-25T02:03:36;12.13;;;4.87;;
18612;SDS011;9436;52.152;21.032;2022-08-25T02:06:05;11.20;;;4.70;;
18612;SDS011;9436;52.152;21.032;2022-08-25T02:08:32;15.47;;;5.33;;
18612;SDS011;9436;52.152;21.032;2022-08-25T02:11:00;11.77;;;4.90;;
18612;SDS011;9436;52.152;21.032;2022-08-25T02:13:27;12.80;;;5.43;;
18612;SDS011;9436;52.152;21.032;2022-08-25T02:15:55;11.93;;;5.07;;
18612;SDS011;9436;52.152;21.032;2022-08-25T02:18:24;10.20;;;4.80;;
18612;SDS011;9436;52.152;21.032;2022-08-25T02:20:51;12.77;;;5.20;;
18612;SDS011;9436;52.152;21.032;2022-08-25T02:23:18;12.47;;;5.07;;
18612;SDS011;9436;52.152;21.032;2022-08-25T02:25:45;12.53;;;5.40;;
18612;SDS011;9436;52.152;21.032;2022-08-25T02:28:13;12.37;;;4.93;;
18612;SDS011;9436;52.152;21.032;2022-08-25T02:30:41;15.17;;;5.50;;
18612;SDS011;9436;52.152;21.032;2022-08-25T02:33:08;13.67;;;5.43;;
18612;SDS011;9436;52.152;21.032;2022-08-25T02:35:36;14.53;;;5.50;;
18612;SDS011;9436;52.152;21.032;2022-08-25T02:38:04;16.33;;;5.40;;
18612;SDS011;9436;52.152;21.032;2022-08-25T02:40:31;12.40;;;5.50;;
18612;SDS011;9436;52.152;21.032;2022-08-25T02:42:58;13.50;;;5.40;;
18612;SDS011;9436;52.152;21.032;2022-08-25T02:45:26;13.10;;;5.47;;
18612;SDS011;9436;52.152;21.032;2022-08-25T02:47:53;13.10;;;5.50;;
18612;SDS011;9436;52.152;21.032;2022-08-25T02:50:20;13.80;;;5.63;;
18612;SDS011;9436;52.152;21.032;2022-08-25T02:52:47;14.00;;;5.67;;
18612;SDS011;9436;52.152;21.032;2022-08-25T02:55:16;19.73;;;5.87;;
18612;SDS011;9436;52.152;21.032;2022-08-25T02:57:44;13.97;;;5.33;;
18612;SDS011;9436;52.152;21.032;2022-08-25T03:00:12;14.27;;;5.67;;
18612;SDS011;9436;52.152;21.032;2022-08-25T03:02:42;13.20;;;5.57;;
18612;SDS011;9436;52.152;21.032;2022-08-25T03:05:09;10.27;;;5.10;;
18612;SDS011;9436;52.152;21.032;2022-08-25T03:07:37;10.27;;;5.17;;
18612;SDS011;9436;52.152;21.032;2022-08-25T03:10:05;16.50;;;5.77;;
18612;SDS011;9436;52.152;21.032;2022-08-25T03:12:34;11.10;;;5.40;;
18612;SDS011;9436;52.152;21.032;2022-08-25T03:15:01;13.77;;;5.80;;
18612;SDS011;9436;52.152;21.032;2022-08-25T03:17:28;16.03;;;6.07;;
18612;SDS011;9436;52.152;21.032;2022-08-25T03:19:57;17.83;;;5.90;;
18612;SDS011;9436;52.152;21.032;2022-08-25T03:22:23;12.83;;;6.13;;
18612;SDS011;9436;52.152;21.032;2022-08-25T03:24:50;14.10;;;6.33;;
18612;SDS011;9436;52.152;21.032;2022-08-25T03:27:37;17.30;;;6.17;;
18612;SDS011;9436;52.152;21.032;2022-08-25T03:30:04;13.87;;;6.10;;
18612;SDS011;9436;52.152;21.032;2022-08-25T03:32:32;15.33;;;6.33;;
18612;SDS011;9436;52.152;21.032;2022-08-25T03:35:00;14.47;;;5.97;;
18612;SDS011;9436;52.152;21.032;2022-08-25T03:37:28;19.20;;;6.57;;
18612;SDS011;9436;52.152;21.032;2022-08-25T03:39:55;14.70;;;6.10;;
18612;SDS011;9436;52.152;21.032;2022-08-25T03:42:22;19.27;;;6.60;;
18612;SDS011;9436;52.152;21.032;2022-08-25T03:44:50;14.30;;;5.97;;
18612;SDS011;9436;52.152;21.032;2022-08-25T03:47:17;17.13;;;6.00;;
18612;SDS011;9436;52.152;21.032;2022-08-25T03:49:44;15.40;;;6.10;;
18612;SDS011;9436;52.152;21.032;2022-08-25T03:52:13;20.40;;;6.70;;
18612;SDS011;9436;52.152;21.032;2022-08-25T03:54:42;16.03;;;6.50;;
18612;SDS011;9436;52.152;21.032;2022-08-25T03:57:10;16.07;;;6.93;;
18612;SDS011;9436;52.152;21.032;2022-08-25T03:59:37;15.00;;;6.90;;
18612;SDS011;9436;52.152;21.032;2022-08-25T04:02:04;18.50;;;6.70;;
18612;SDS011;9436;52.152;21.032;2022-08-25T04:04:31;15.77;;;6.50;;
18612;SDS011;9436;52.152;21.032;2022-08-25T04:06:59;17.17;;;6.90;;
18612;SDS011;9436;52.152;21.032;2022-08-25T04:09:28;16.53;;;7.17;;
18612;SDS011;9436;52.152;21.032;2022-08-25T04:11:55;20.07;;;7.27;;
18612;SDS011;9436;52.152;21.032;2022-08-25T04:14:22;17.70;;;6.77;;
18612;SDS011;9436;52.152;21.032;2022-08-25T04:16:50;16.50;;;6.93;;
18612;SDS011;9436;52.152;21.032;2022-08-25T04:19:17;18.33;;;7.10;;
18612;SDS011;9436;52.152;21.032;2022-08-25T04:21:45;19.40;;;6.40;;
18612;SDS011;9436;52.152;21.032;2022-08-25T04:24:12;18.17;;;7.07;;
18612;SDS011;9436;52.152;21.032;2022-08-25T04:26:42;17.20;;;6.77;;
18612;SDS011;9436;52.152;21.032;2022-08-25T04:29:11;17.47;;;7.13;;
18612;SDS011;9436;52.152;21.032;2022-08-25T04:31:40;19.43;;;7.37;;
18612;SDS011;9436;52.152;21.032;2022-08-25T04:34:10;21.77;;;7.70;;
18612;SDS011;9436;52.152;21.032;2022-08-25T04:36:38;17.83;;;7.93;;
18612;SDS011;9436;52.152;21.032;2022-08-25T04:39:05;23.77;;;8.30;;
18612;SDS011;9436;52.152;21.032;2022-08-25T04:41:32;18.87;;;7.50;;
18612;SDS011;9436;52.152;21.032;2022-08-25T04:44:01;19.23;;;7.47;;
18612;SDS011;9436;52.152;21.032;2022-08-25T04:46:30;17.80;;;7.77;;
18612;SDS011;9436;52.152;21.032;2022-08-25T04:48:59;25.50;;;7.93;;
18612;SDS011;9436;52.152;21.032;2022-08-25T04:51:28;23.73;;;7.53;;
18612;SDS011;9436;52.152;21.032;2022-08-25T04:53:57;19.53;;;7.60;;
18612;SDS011;9436;52.152;21.032;2022-08-25T04:56:25;23.70;;;7.93;;
18612;SDS011;9436;52.152;21.032;2022-08-25T04:58:52;18.03;;;7.10;;
18612;SDS011;9436;52.152;21.032;2022-08-25T05:01:22;20.87;;;7.43;;
18612;SDS011;9436;52.152;21.032;2022-08-25T05:03:52;20.63;;;7.83;;
18612;SDS011;9436;52.152;21.032;2022-08-25T05:06:20;20.40;;;7.17;;
18612;SDS011;9436;52.152;21.032;2022-08-25T05:08:48;18.30;;;7.20;;
18612;SDS011;9436;52.152;21.032;2022-08-25T05:11:15;20.60;;;8.17;;
18612;SDS011;9436;52.152;21.032;2022-08-25T05:13:43;22.60;;;8.10;;
18612;SDS011;9436;52.152;21.032;2022-08-25T05:16:11;19.47;;;8.50;;
18612;SDS011;9436;52.152;21.032;2022-08-25T05:18:40;23.83;;;8.30;;
18612;SDS011;9436;52.152;21.032;2022-08-25T05:21:08;22.77;;;8.17;;
18612;SDS011;9436;52.152;21.032;2022-08-25T05:23:37;23.23;;;8.27;;
18612;SDS011;9436;52.152;21.032;2022-08-25T05:26:05;18.60;;;8.10;;
18612;SDS011;9436;52.152;21.032;2022-08-25T05:28:34;21.77;;;7.93;;
18612;SDS011;9436;52.152;21.032;2022-08-25T05:31:02;20.00;;;7.53;;
18612;SDS011;9436;52.152;21.032;2022-08-25T05:33:29;20.83;;;7.77;;
18612;SDS011;9436;52.152;21.032;2022-08-25T05:35:58;20.13;;;7.80;;
18612;SDS011;9436;52.152;21.032;2022-08-25T05:38:25;24.97;;;8.10;;
18612;SDS011;9436;52.152;21.032;2022-08-25T05:40:53;23.67;;;7.83;;
18612;SDS011;9436;52.152;21.032;2022-08-25T05:43:22;23.40;;;8.07;;
18612;SDS011;9436;52.152;21.032;2022-08-25T05:45:52;23.37;;;8.07;;
18612;SDS011;9436;52.152;21.032;2022-08-25T05:48:19;19.53;;;7.73;;
18612;SDS011;9436;52.152;21.032;2022-08-25T05:50:49;22.23;;;8.53;;
18612;SDS011;9436;52.152;21.032;2022-08-25T05:53:18;26.83;;;8.93;;
18612;SDS011;9436;52.152;21.032;2022-08-25T05:55:47;20.53;;;7.87;;
18612;SDS011;9436;52.152;21.032;2022-08-25T05:58:15;23.03;;;7.93;;
18612;SDS011;9436;52.152;21.032;2022-08-25T06:00:42;22.90;;;8.20;;
18612;SDS011;9436;52.152;21.032;2022-08-25T06:03:11;22.53;;;8.73;;
18612;SDS011;9436;52.152;21.032;2022-08-25T06:05:37;27.50;;;8.40;;
18612;SDS011;9436;52.152;21.032;2022-08-25T06:08:05;19.63;;;7.97;;
18612;SDS011;9436;52.152;21.032;2022-08-25T06:10:34;24.53;;;7.83;;
18612;SDS011;9436;52.152;21.032;2022-08-25T06:13:01;20.43;;;8.07;;
18612;SDS011;9436;52.152;21.032;2022-08-25T06:15:29;19.13;;;8.03;;
18612;SDS011;9436;52.152;21.032;2022-08-25T06:17:56;23.53;;;7.90;;
18612;SDS011;9436;52.152;21.032;2022-08-25T06:20:26;19.23;;;7.50;;
18612;SDS011;9436;52.152;21.032;2022-08-25T06:22:54;17.00;;;7.40;;
18612;SDS011;9436;52.152;21.032;2022-08-25T06:25:22;19.93;;;7.30;;
18612;SDS011;9436;52.152;21.032;2022-08-25T06:27:52;16.53;;;7.27;;
18612;SDS011;9436;52.152;21.032;2022-08-25T06:30:20;19.30;;;8.20;;
18612;SDS011;9436;52.152;21.032;2022-08-25T06:32:48;18.07;;;7.20;;
18612;SDS011;9436;52.152;21.032;2022-08-25T06:35:17;24.07;;;8.80;;
18612;SDS011;9436;52.152;21.032;2022-08-25T06:37:45;22.50;;;8.00;;
18612;SDS011;9436;52.152;21.032;2022-08-25T06:40:13;18.13;;;7.47;;
18612;SDS011;9436;52.152;21.032;2022-08-25T06:42:41;21.83;;;8.40;;
18612;SDS011;9436;52.152;21.032;2022-08-25T06:45:09;20.80;;;7.63;;
18612;SDS011;9436;52.152;21.032;2022-08-25T06:47:36;24.73;;;8.40;;
18612;SDS011;9436;52.152;21.032;2022-08-25T06:50:04;18.80;;;7.93;;
18612;SDS011;9436;52.152;21.032;2022-08-25T06:52:31;19.63;;;7.70;;
18612;SDS011;9436;52.152;21.032;2022-08-25T06:54:59;21.10;;;7.60;;
18612;SDS011;9436;52.152;21.032;2022-08-25T06:57:26;17.63;;;7.47;;
18612;SDS011;9436;52.152;21.032;2022-08-25T06:59:53;18.93;;;7.87;;
18612;SDS011;9436;52.152;21.032;2022-08-25T07:02:22;20.40;;;7.67;;
18612;SDS011;9436;52.152;21.032;2022-08-25T07:04:48;19.33;;;7.57;;
18612;SDS011;9436;52.152;21.032;2022-08-25T07:07:17;17.53;;;7.50;;
18612;SDS011;9436;52.152;21.032;2022-08-25T07:09:45;17.97;;;7.87;;
18612;SDS011;9436;52.152;21.032;2022-08-25T07:12:12;15.77;;;7.13;;
18612;SDS011;9436;52.152;21.032;2022-08-25T07:14:39;14.87;;;6.87;;
18612;SDS011;9436;52.152;21.032;2022-08-25T07:17:06;15.97;;;7.03;;
18612;SDS011;9436;52.152;21.032;2022-08-25T07:19:34;17.37;;;7.43;;
18612;SDS011;9436;52.152;21.032;2022-08-25T07:22:01;18.70;;;6.60;;
18612;SDS011;9436;52.152;21.032;2022-08-25T07:24:28;23.70;;;7.60;;
18612;SDS011;9436;52.152;21.032;2022-08-25T07:26:55;17.50;;;7.07;;
18612;SDS011;9436;52.152;21.032;2022-08-25T07:29:24;20.23;;;7.20;;
18612;SDS011;9436;52.152;21.032;2022-08-25T07:31:52;19.37;;;7.30;;
18612;SDS011;9436;52.152;21.032;2022-08-25T07:34:19;17.73;;;7.30;;
18612;SDS011;9436;52.152;21.032;2022-08-25T07:37:05;15.10;;;6.83;;
18612;SDS011;9436;52.152;21.032;2022-08-25T07:39:32;16.90;;;6.77;;
18612;SDS011;9436;52.152;21.032;2022-08-25T07:42:00;17.73;;;7.17;;
18612;SDS011;9436;52.152;21.032;2022-08-25T07:44:27;16.57;;;7.03;;
18612;SDS011;9436;52.152;21.032;2022-08-25T07:46:53;17.30;;;7.17;;
18612;SDS011;9436;52.152;21.032;2022-08-25T07:49:22;15.77;;;6.90;;
18612;SDS011;9436;52.152;21.032;2022-08-25T07:51:50;16.90;;;6.50;;
18612;SDS011;9436;52.152;21.032;2022-08-25T07:54:21;14.63;;;6.27;;
18612;SDS011;9436;52.152;21.032;2022-08-25T07:56:51;12.60;;;6.17;;
18612;SDS011;9436;52.152;21.032;2022-08-25T07:59:18;14.40;;;6.17;;
18612;SDS011;9436;52.152;21.032;2022-08-25T08:01:45;14.67;;;6.17;;
18612;SDS011;9436;52.152;21.032;2022-08-25T08:04:12;20.40;;;7.57;;
18612;SDS011;9436;52.152;21.032;2022-08-25T08:06:39;16.17;;;6.87;;
18612;SDS011;9436;52.152;21.032;2022-08-25T08:09:06;17.07;;;6.73;;
18612;SDS011;9436;52.152;21.032;2022-08-25T08:11:34;19.80;;;8.20;;
18612;SDS011;9436;52.152;21.032;2022-08-25T08:14:04;15.27;;;6.87;;
18612;SDS011;9436;52.152;21.032;2022-08-25T08:16:32;16.77;;;7.00;;
18612;SDS011;9436;52.152;21.032;2022-08-25T08:18:59;19.50;;;7.27;;
18612;SDS011;9436;52.152;21.032;2022-08-25T08:21:29;12.77;;;6.93;;
18612;SDS011;9436;52.152;21.032;2022-08-25T08:23:59;19.93;;;7.20;;
18612;SDS011;9436;52.152;21.032;2022-08-25T08:26:27;18.23;;;7.03;;
18612;SDS011;9436;52.152;21.032;2022-08-25T08:28:55;21.37;;;7.33;;
18612;SDS011;9436;52.152;21.032;2022-08-25T08:31:23;19.83;;;7.33;;
18612;SDS011;9436;52.152;21.032;2022-08-25T08:33:53;14.43;;;6.93;;
18612;SDS011;9436;52.152;21.032;2022-08-25T08:36:21;14.37;;;6.90;;
18612;SDS011;9436;52.152;21.032;2022-08-25T08:38:49;16.40;;;7.40;;
18612;SDS011;9436;52.152;21.032;2022-08-25T08:41:20;15.60;;;7.00;;
18612;SDS011;9436;52.152;21.032;2022-08-25T08:44:31;17.03;;;6.77;;
18612;SDS011;9436;52.152;21.032;2022-08-25T08:47:10;16.00;;;6.97;;
18612;SDS011;9436;52.152;21.032;2022-08-25T08:49:48;19.13;;;7.20;;
18612;SDS011;9436;52.152;21.032;2022-08-25T08:52:27;17.30;;;6.83;;
18612;SDS011;9436;52.152;21.032;2022-08-25T08:55:02;15.90;;;6.33;;
18612;SDS011;9436;52.152;21.032;2022-08-25T08:57:34;16.93;;;6.37;;
18612;SDS011;9436;52.152;21.032;2022-08-25T09:00:10;15.67;;;6.10;;
18612;SDS011;9436;52.152;21.032;2022-08-25T09:02:39;13.17;;;6.37;;
18612;SDS011;9436;52.152;21.032;2022-08-25T09:05:11;12.63;;;5.77;;
18612;SDS011;9436;52.152;21.032;2022-08-25T09:07:42;14.07;;;6.00;;
18612;SDS011;9436;52.152;21.032;2022-08-25T09:10:13;18.67;;;6.80;;
18612;SDS011;9436;52.152;21.032;2022-08-25T09:12:42;16.63;;;6.93;;
18612;SDS011;9436;52.152;21.032;2022-08-25T09:15:18;14.40;;;6.10;;
18612;SDS011;9436;52.152;21.032;2022-08-25T09:18:16;14.43;;;6.10;;
18612;SDS011;9436;52.152;21.032;2022-08-25T09:20:52;13.23;;;6.70;;
18612;SDS011;9436;52.152;21.032;2022-08-25T09:23:30;12.37;;;6.57;;
18612;SDS011;9436;52.152;21.032;2022-08-25T09:26:10;14.37;;;6.83;;
18612;SDS011;9436;52.152;21.032;2022-08-25T09:28:46;15.68;;;6.15;;
18612;SDS011;9436;52.152;21.032;2022-08-25T09:31:18;13.82;;;6.60;;
18612;SDS011;9436;52.152;21.032;2022-08-25T09:33:47;19.15;;;6.38;;
18612;SDS011;9436;52.152;21.032;2022-08-25T09:36:16;14.18;;;6.32;;
18612;SDS011;9436;52.152;21.032;2022-08-25T09:38:43;11.40;;;5.80;;
18612;SDS011;9436;52.152;21.032;2022-08-25T09:41:10;10.13;;;5.15;;
18612;SDS011;9436;52.152;21.032;2022-08-25T09:43:43;13.05;;;5.22;;
18612;SDS011;9436;52.152;21.032;2022-08-25T09:46:23;12.23;;;5.57;;
18612;SDS011;9436;52.152;21.032;2022-08-25T09:48:52;10.00;;;5.30;;
18612;SDS011;9436;52.152;21.032;2022-08-25T09:51:23;11.05;;;4.93;;
18612;SDS011;9436;52.152;21.032;2022-08-25T09:53:53;9.35;;;4.65;;
18612;SDS011;9436;52.152;21.032;2022-08-25T09:56:22;13.32;;;4.40;;
18612;SDS011;9436;52.152;21.032;2022-08-25T09:58:51;9.13;;;4.40;;
18612;SDS011;9436;52.152;21.032;2022-08-25T10:01:21;7.15;;;3.92;;
18612;SDS011;9436;52.152;21.032;2022-08-25T10:03:55;7.85;;;4.45;;
18612;SDS011;9436;52.152;21.032;2022-08-25T10:06:24;8.50;;;4.10;;
18612;SDS011;9436;52.152;21.032;2022-08-25T10:08:55;9.63;;;4.15;;
18612;SDS011;9436;52.152;21.032;2022-08-25T10:11:38;9.13;;;3.90;;
18612;SDS011;9436;52.152;21.032;2022-08-25T10:14:20;9.98;;;4.72;;
18612;SDS011;9436;52.152;21.032;2022-08-25T10:17:10;9.25;;;4.20;;
18612;SDS011;9436;52.152;21.032;2022-08-25T10:19:40;7.88;;;3.92;;
18612;SDS011;9436;52.152;21.032;2022-08-25T10:22:08;7.78;;;4.40;;
18612;SDS011;9436;52.152;21.032;2022-08-25T10:24:37;9.45;;;4.57;;
18612;SDS011;9436;52.152;21.032;2022-08-25T10:27:08;4.70;;;3.90;;
18612;SDS011;9436;52.152;21.032;2022-08-25T10:29:52;9.55;;;3.97;;
18612;SDS011;9436;52.152;21.032;2022-08-25T10:32:31;9.98;;;4.13;;
18612;SDS011;9436;52.152;21.032;2022-08-25T10:35:11;7.75;;;3.47;;
18612;SDS011;9436;52.152;21.032;2022-08-25T10:37:42;6.85;;;3.28;;
18612;SDS011;9436;52.152;21.032;2022-08-25T10:40:19;6.13;;;3.42;;
18612;SDS011;9436;52.152;21.032;2022-08-25T10:42:55;7.80;;;3.30;;
18612;SDS011;9436;52.152;21.032;2022-08-25T10:45:31;6.13;;;3.10;;
18612;SDS011;9436;52.152;21.032;2022-08-25T10:51:16;10.85;;;3.50;;
18612;SDS011;9436;52.152;21.032;2022-08-25T10:53:55;7.25;;;3.13;;
18612;SDS011;9436;52.152;21.032;2022-08-25T10:56:26;7.68;;;3.13;;
18612;SDS011;9436;52.152;21.032;2022-08-25T10:59:08;6.22;;;3.33;;
18612;SDS011;9436;52.152;21.032;2022-08-25T11:02:00;5.38;;;3.13;;
18612;SDS011;9436;52.152;21.032;2022-08-25T11:04:37;8.98;;;3.33;;
18612;SDS011;9436;52.152;21.032;2022-08-25T11:07:10;5.78;;;3.45;;
18612;SDS011;9436;52.152;21.032;2022-08-25T11:09:45;7.30;;;3.47;;
18612;SDS011;9436;52.152;21.032;2022-08-25T11:12:15;8.82;;;3.63;;
18612;SDS011;9436;52.152;21.032;2022-08-25T11:14:50;5.63;;;3.25;;
18612;SDS011;9436;52.152;21.032;2022-08-25T11:17:23;6.50;;;3.45;;
18612;SDS011;9436;52.152;21.032;2022-08-25T11:19:52;6.68;;;3.10;;
18612;SDS011;9436;52.152;21.032;2022-08-25T11:22:25;7.88;;;3.88;;
18612;SDS011;9436;52.152;21.032;2022-08-25T11:25:00;9.65;;;3.50;;
18612;SDS011;9436;52.152;21.032;2022-08-25T11:27:43;9.45;;;3.25;;
18612;SDS011;9436;52.152;21.032;2022-08-25T11:30:18;8.93;;;3.05;;
18612;SDS011;9436;52.152;21.032;2022-08-25T11:32:47;7.63;;;2.90;;
18612;SDS011;9436;52.152;21.032;2022-08-25T11:35:17;6.00;;;3.00;;
18612;SDS011;9436;52.152;21.032;2022-08-25T11:37:52;8.52;;;3.10;;
18612;SDS011;9436;52.152;21.032;2022-08-25T11:40:40;11.73;;;3.13;;
18612;SDS011;9436;52.152;21.032;2022-08-25T11:43:28;5.72;;;2.95;;
18612;SDS011;9436;52.152;21.032;2022-08-25T11:46:08;6.05;;;3.40;;
18612;SDS011;9436;52.152;21.032;2022-08-25T11:48:52;6.13;;;2.88;;
18612;SDS011;9436;52.152;21.032;2022-08-25T11:51:27;7.30;;;2.97;;
18612;SDS011;9436;52.152;21.032;2022-08-25T11:56:58;6.32;;;2.92;;
18612;SDS011;9436;52.152;21.032;2022-08-25T12:02:35;4.47;;;3.20;;
18612;SDS011;9436;52.152;21.032;2022-08-25T12:05:05;6.10;;;3.00;;
18612;SDS011;9436;52.152;21.032;2022-08-25T12:10:56;4.60;;;3.15;;
18612;SDS011;9436;52.152;21.032;2022-08-25T12:13:39;6.03;;;2.97;;
18612;SDS011;9436;52.152;21.032;2022-08-25T12:19:27;9.35;;;3.03;;
18612;SDS011;9436;52.152;21.032;2022-08-25T12:21:56;6.22;;;3.20;;
18612;SDS011;9436;52.152;21.032;2022-08-25T12:24:46;3.85;;;2.75;;
18612;SDS011;9436;52.152;21.032;2022-08-25T12:27:21;5.10;;;3.10;;
18612;SDS011;9436;52.152;21.032;2022-08-25T12:29:54;4.57;;;3.20;;
18612;SDS011;9436;52.152;21.032;2022-08-25T12:35:24;6.85;;;3.20;;
18612;SDS011;9436;52.152;21.032;2022-08-25T12:37:56;5.93;;;3.40;;
18612;SDS011;9436;52.152;21.032;2022-08-25T12:40:30;5.15;;;3.15;;
18612;SDS011;9436;52.152;21.032;2022-08-25T12:43:06;6.50;;;3.20;;
18612;SDS011;9436;52.152;21.032;2022-08-25T12:45:37;7.22;;;3.60;;
18612;SDS011;9436;52.152;21.032;2022-08-25T12:51:15;6.55;;;3.45;;
18612;SDS011;9436;52.152;21.032;2022-08-25T12:53:45;5.93;;;3.17;;
18612;SDS011;9436;52.152;21.032;2022-08-25T12:56:17;7.22;;;3.45;;
18612;SDS011;9436;52.152;21.032;2022-08-25T12:58:55;5.38;;;3.30;;
18612;SDS011;9436;52.152;21.032;2022-08-25T13:01:32;6.43;;;3.53;;
18612;SDS011;9436;52.152;21.032;2022-08-25T13:07:08;7.43;;;3.40;;
18612;SDS011;9436;52.152;21.032;2022-08-25T13:10:02;5.60;;;3.50;;
18612;SDS011;9436;52.152;21.032;2022-08-25T13:12:49;5.72;;;3.50;;
18612;SDS011;9436;52.152;21.032;2022-08-25T13:15:33;5.88;;;3.17;;
18612;SDS011;9436;52.152;21.032;2022-08-25T13:18:12;5.18;;;3.22;;
18612;SDS011;9436;52.152;21.032;2022-08-25T13:20:51;5.43;;;3.47;;
18612;SDS011;9436;52.152;21.032;2022-08-25T13:23:21;8.60;;;3.30;;
18612;SDS011;9436;52.152;21.032;2022-08-25T13:25:55;5.38;;;3.13;;
18612;SDS011;9436;52.152;21.032;2022-08-25T13:28:25;8.23;;;3.45;;
18612;SDS011;9436;52.152;21.032;2022-08-25T13:30:56;4.72;;;3.17;;
18612;SDS011;9436;52.152;21.032;2022-08-25T13:33:25;10.43;;;3.15;;
18612;SDS011;9436;52.152;21.032;2022-08-25T13:35:53;5.35;;;2.95;;
18612;SDS011;9436;52.152;21.032;2022-08-25T13:38:35;3.72;;;3.17;;
18612;SDS011;9436;52.152;21.032;2022-08-25T13:41:02;4.97;;;3.13;;
18612;SDS011;9436;52.152;21.032;2022-08-25T13:43:29;6.70;;;3.10;;
18612;SDS011;9436;52.152;21.032;2022-08-25T13:45:58;10.43;;;2.97;;
18612;SDS011;9436;52.152;21.032;2022-08-25T13:48:34;7.03;;;2.92;;
18612;SDS011;9436;52.152;21.032;2022-08-25T13:51:08;5.70;;;2.88;;
18612;SDS011;9436;52.152;21.032;2022-08-25T13:53:47;6.55;;;3.15;;
18612;SDS011;9436;52.152;21.032;2022-08-25T13:56:22;6.05;;;3.17;;
18612;SDS011;9436;52.152;21.032;2022-08-25T13:58:51;5.90;;;3.15;;
18612;SDS011;9436;52.152;21.032;2022-08-25T14:01:21;6.47;;;2.70;;
18612;SDS011;9436;52.152;21.032;2022-08-25T14:03:51;7.07;;;2.90;;
18612;SDS011;9436;52.152;21.032;2022-08-25T14:06:20;6.18;;;2.90;;
18612;SDS011;9436;52.152;21.032;2022-08-25T14:09:03;4.10;;;2.90;;
18612;SDS011;9436;52.152;21.032;2022-08-25T14:11:39;4.18;;;3.05;;
18612;SDS011;9436;52.152;21.032;2022-08-25T14:14:08;7.38;;;3.25;;
18612;SDS011;9436;52.152;21.032;2022-08-25T14:16:39;5.28;;;2.90;;
18612;SDS011;9436;52.152;21.032;2022-08-25T14:19:14;4.38;;;2.70;;
18612;SDS011;9436;52.152;21.032;2022-08-25T14:21:42;3.17;;;2.78;;
18612;SDS011;9436;52.152;21.032;2022-08-25T14:24:12;6.80;;;2.88;;
18612;SDS011;9436;52.152;21.032;2022-08-25T14:26:41;4.78;;;2.80;;
18612;SDS011;9436;52.152;21.032;2022-08-25T14:29:09;4.05;;;2.70;;
18612;SDS011;9436;52.152;21.032;2022-08-25T14:31:36;5.72;;;2.67;;
18612;SDS011;9436;52.152;21.032;2022-08-25T14:34:08;6.75;;;3.00;;
18612;SDS011;9436;52.152;21.032;2022-08-25T14:36:38;7.13;;;3.40;;
18612;SDS011;9436;52.152;21.032;2022-08-25T14:39:05;5.20;;;3.17;;
18612;SDS011;9436;52.152;21.032;2022-08-25T14:41:33;4.63;;;2.70;;
18612;SDS011;9436;52.152;21.032;2022-08-25T14:44:01;6.60;;;3.20;;
18612;SDS011;9436;52.152;21.032;2022-08-25T14:46:31;8.82;;;2.83;;
18612;SDS011;9436;52.152;21.032;2022-08-25T14:49:03;4.18;;;2.80;;
18612;SDS011;9436;52.152;21.032;2022-08-25T14:51:32;6.10;;;3.00;;
18612;SDS011;9436;52.152;21.032;2022-08-25T14:54:01;11.65;;;2.88;;
18612;SDS011;9436;52.152;21.032;2022-08-25T14:56:30;6.78;;;3.22;;
18612;SDS011;9436;52.152;21.032;2022-08-25T14:58:58;3.42;;;2.63;;
18612;SDS011;9436;52.152;21.032;2022-08-25T15:01:25;5.43;;;2.75;;
18612;SDS011;9436;52.152;21.032;2022-08-25T15:03:54;5.15;;;3.13;;
18612;SDS011;9436;52.152;21.032;2022-08-25T15:06:24;8.07;;;2.53;;
18612;SDS011;9436;52.152;21.032;2022-08-25T15:08:53;4.22;;;2.58;;
18612;SDS011;9436;52.152;21.032;2022-08-25T15:11:38;4.35;;;2.85;;
18612;SDS011;9436;52.152;21.032;2022-08-25T15:14:07;6.13;;;2.60;;
18612;SDS011;9436;52.152;21.032;2022-08-25T15:16:35;4.28;;;2.60;;
18612;SDS011;9436;52.152;21.032;2022-08-25T15:19:04;6.63;;;2.60;;
18612;SDS011;9436;52.152;21.032;2022-08-25T15:21:35;6.10;;;2.50;;
18612;SDS011;9436;52.152;21.032;2022-08-25T15:24:02;4.90;;;2.67;;